Time;durP1;ratioP1;P1;durP2;ratioP2;P2;SDS_P1;SDS_P2;PMS_P1;PMS_P2;Temp;Humidity;BMP_temperature;BMP_pressure;BME280_temperature;BME280_humidity;BME280_pressure;Samples;Min_cycle;Max_cycle;Signal;HPM_P1;HPM_P2
2023/09/01 00:01:48;;;;;;;11.30;7.22;;;18.20;99.90;;;;;;5030576;28;20485;-77
2023/09/01 00:04:26;;;;;;;11.13;7.55;;;18.20;99.90;;;;;;5026919;28;20071;-77
2023/09/01 00:06:52;;;;;;;10.90;7.07;;;18.20;99.90;;;;;;5030488;28;20504;-77
2023/09/01 00:09:17;;;;;;;11.88;6.85;;;18.20;99.90;;;;;;5030560;28;20052;-78
2023/09/01 00:11:43;;;;;;;10.70;7.03;;;18.20;99.90;;;;;;5030228;28;20037;-78
2023/09/01 00:14:09;;;;;;;10.90;6.97;;;18.20;99.90;;;;;;5030406;28;20049;-77
2023/09/01 00:16:35;;;;;;;14.60;7.38;;;18.20;99.90;;;;;;5030294;28;20021;-78
2023/09/01 00:19:00;;;;;;;11.05;6.93;;;18.20;99.90;;;;;;5030189;28;20104;-77
2023/09/01 00:21:26;;;;;;;12.48;6.57;;;18.20;99.90;;;;;;5029987;28;20018;-78
2023/09/01 00:23:52;;;;;;;11.00;6.65;;;18.10;99.90;;;;;;5029456;28;20389;-78
2023/09/01 00:26:18;;;;;;;10.30;6.82;;;18.10;99.90;;;;;;5029289;28;20041;-77
2023/09/01 00:28:47;;;;;;;9.02;5.65;;;18.20;99.90;;;;;;5030368;28;20021;-78
2023/09/01 00:31:16;;;;;;;10.05;6.40;;;18.20;99.90;;;;;;5012417;28;20025;-78
2023/09/01 00:33:42;;;;;;;10.85;6.25;;;18.20;99.90;;;;;;5001446;28;20029;-78
2023/09/01 00:36:08;;;;;;;10.43;6.53;;;18.30;99.90;;;;;;5018110;28;20049;-78
2023/09/01 00:38:34;;;;;;;12.80;7.00;;;18.30;99.90;;;;;;5030030;28;20108;-78
2023/09/01 00:40:59;;;;;;;11.18;6.63;;;18.40;99.90;;;;;;5012182;28;20484;-78
2023/09/01 00:43:25;;;;;;;16.67;7.40;;;18.30;99.90;;;;;;4998997;28;20071;-78
2023/09/01 00:45:51;;;;;;;11.73;6.63;;;18.30;99.90;;;;;;5014667;28;20121;-78
2023/09/01 00:48:18;;;;;;;9.98;6.47;;;18.30;99.90;;;;;;5012158;28;20381;-77
2023/09/01 00:50:48;;;;;;;12.25;7.22;;;18.30;99.90;;;;;;5029381;28;20068;-77
2023/09/01 00:53:14;;;;;;;14.57;8.18;;;18.30;99.90;;;;;;5031263;28;20026;-78
2023/09/01 00:55:39;;;;;;;12.93;7.55;;;18.20;99.90;;;;;;5030161;28;20021;-78
2023/09/01 00:58:05;;;;;;;16.95;11.13;;;18.20;99.90;;;;;;5008660;28;20476;-78
2023/09/01 01:00:32;;;;;;;16.42;9.82;;;18.10;99.90;;;;;;5029789;28;20025;-78
2023/09/01 01:03:01;;;;;;;15.98;10.23;;;18.00;99.90;;;;;;5029364;28;20451;-78
2023/09/01 01:05:50;;;;;;;17.48;9.13;;;18.00;99.90;;;;;;5012100;28;20037;-78
2023/09/01 01:08:27;;;;;;;12.82;8.27;;;18.10;99.90;;;;;;5000220;28;20030;-78
2023/09/01 01:11:06;;;;;;;13.75;8.07;;;18.10;99.90;;;;;;5012118;28;20044;-77
2023/09/01 01:13:35;;;;;;;11.77;7.90;;;18.10;99.90;;;;;;5027539;28;20029;-78
2023/09/01 01:16:02;;;;;;;12.27;7.43;;;18.10;99.90;;;;;;5032181;28;20040;-78
2023/09/01 01:18:30;;;;;;;15.15;8.55;;;18.10;99.90;;;;;;5033388;28;20481;-77
2023/09/01 01:21:06;;;;;;;15.20;8.13;;;18.10;99.90;;;;;;5015625;28;20152;-78
2023/09/01 01:23:32;;;;;;;12.98;7.75;;;18.10;99.90;;;;;;5030739;28;20033;-78
2023/09/01 01:25:59;;;;;;;11.70;7.40;;;18.00;99.90;;;;;;5030219;28;20030;-77
2023/09/01 01:28:25;;;;;;;14.98;7.35;;;17.90;99.90;;;;;;5015733;28;20038;-78
2023/09/01 01:30:51;;;;;;;13.25;8.68;;;17.90;99.90;;;;;;5033235;28;20025;-77
2023/09/01 01:33:41;;;;;;;14.05;7.88;;;17.90;99.90;;;;;;5033465;28;20022;-78
2023/09/01 01:36:24;;;;;;;13.38;8.88;;;17.90;99.90;;;;;;5032127;28;20029;-78
2023/09/01 01:38:58;;;;;;;14.07;8.68;;;17.80;99.90;;;;;;5032941;28;20075;-77
2023/09/01 01:41:33;;;;;;;14.60;8.95;;;17.80;99.90;;;;;;5002539;28;20378;-78
2023/09/01 01:44:00;;;;;;;15.60;9.27;;;17.80;99.90;;;;;;5013923;28;20049;-78
2023/09/01 01:46:27;;;;;;;13.95;8.38;;;17.80;99.90;;;;;;5000024;28;20111;-77
2023/09/01 01:48:52;;;;;;;13.65;8.27;;;17.80;99.90;;;;;;4999818;28;20037;-77
2023/09/01 01:51:18;;;;;;;12.05;7.10;;;17.70;99.90;;;;;;5011001;28;20030;-77
2023/09/01 01:53:44;;;;;;;12.57;7.85;;;17.80;99.90;;;;;;5002388;28;20579;-78
2023/09/01 01:56:12;;;;;;;14.77;8.93;;;17.80;99.90;;;;;;5032752;28;20373;-77
2023/09/01 01:58:39;;;;;;;14.75;8.65;;;17.70;99.90;;;;;;5001218;28;20022;-78
2023/09/01 02:01:06;;;;;;;15.60;8.32;;;17.70;99.90;;;;;;4999384;28;20079;-77
2023/09/01 02:03:32;;;;;;;13.65;7.80;;;17.60;99.90;;;;;;4997805;28;20029;-77
2023/09/01 02:05:57;;;;;;;11.75;7.90;;;17.60;99.90;;;;;;4998235;28;20042;-78
2023/09/01 02:08:23;;;;;;;12.50;8.25;;;17.60;99.90;;;;;;5014991;28;20465;-78
2023/09/01 02:10:49;;;;;;;15.07;8.60;;;17.70;99.90;;;;;;5032620;28;20397;-77
2023/09/01 02:13:15;;;;;;;12.07;7.88;;;17.70;99.90;;;;;;4999233;28;20038;-78
2023/09/01 02:15:49;;;;;;;13.90;7.88;;;17.70;99.90;;;;;;5033012;28;20025;-77
2023/09/01 02:18:15;;;;;;;11.93;8.05;;;17.60;99.90;;;;;;5028510;28;20029;-77
2023/09/01 02:20:40;;;;;;;13.05;7.82;;;17.60;99.90;;;;;;5031549;28;20067;-78
2023/09/01 02:23:06;;;;;;;12.90;7.97;;;17.50;99.90;;;;;;5013651;28;20385;-77
2023/09/01 02:25:38;;;;;;;13.65;8.73;;;17.40;99.90;;;;;;5013822;28;20080;-77
2023/09/01 02:28:04;;;;;;;11.82;8.10;;;17.40;99.90;;;;;;5028782;28;20029;-78
2023/09/01 02:30:30;;;;;;;12.20;8.10;;;17.40;99.90;;;;;;5013826;28;20963;-78
2023/09/01 02:32:56;;;;;;;12.00;7.72;;;17.30;99.90;;;;;;5032448;28;20109;-77
2023/09/01 02:35:22;;;;;;;12.13;8.27;;;17.30;99.90;;;;;;5031968;28;20488;-77
2023/09/01 02:37:49;;;;;;;13.45;8.07;;;17.30;99.90;;;;;;5028652;28;20681;-78
2023/09/01 02:40:15;;;;;;;12.02;8.80;;;17.20;99.90;;;;;;5031076;28;20044;-78
2023/09/01 02:42:41;;;;;;;13.73;9.10;;;17.30;99.90;;;;;;5015506;28;20033;-77
2023/09/01 02:45:11;;;;;;;12.95;8.68;;;17.20;99.90;;;;;;5031244;28;20045;-78
2023/09/01 02:47:39;;;;;;;13.68;9.35;;;17.20;99.90;;;;;;5013296;28;20022;-78
2023/09/01 02:50:05;;;;;;;21.30;16.00;;;17.10;99.90;;;;;;4996322;28;20504;-78
2023/09/01 02:52:31;;;;;;;19.67;13.77;;;17.10;99.90;;;;;;5030816;28;20014;-77
2023/09/01 02:54:57;;;;;;;14.38;9.77;;;17.10;99.90;;;;;;5034317;28;20029;-77
2023/09/01 02:57:23;;;;;;;13.27;8.82;;;17.10;99.90;;;;;;5029270;28;20104;-78
2023/09/01 02:59:52;;;;;;;14.20;8.35;;;17.00;99.90;;;;;;5030656;28;20803;-78
2023/09/01 03:02:18;;;;;;;17.10;8.23;;;17.10;99.90;;;;;;5030444;28;20013;-78
2023/09/01 03:04:44;;;;;;;16.00;8.73;;;17.00;99.90;;;;;;5000660;28;20021;-77
2023/09/01 03:07:09;;;;;;;12.50;8.55;;;17.00;99.90;;;;;;5029593;28;20079;-78
2023/09/01 03:09:35;;;;;;;13.93;7.93;;;16.90;99.90;;;;;;5030539;28;20017;-78
2023/09/01 03:12:01;;;;;;;12.43;7.75;;;16.90;99.90;;;;;;5009163;28;20037;-77
2023/09/01 03:14:27;;;;;;;13.40;8.02;;;16.90;99.90;;;;;;5030910;28;20026;-77
2023/09/01 03:16:53;;;;;;;11.35;7.30;;;16.70;99.90;;;;;;5003388;28;20037;-78
2023/09/01 03:19:18;;;;;;;13.20;7.22;;;16.70;99.90;;;;;;5012628;28;20032;-78
2023/09/01 03:21:44;;;;;;;11.43;7.05;;;16.70;99.90;;;;;;5026967;28;20053;-78
2023/09/01 03:24:10;;;;;;;15.00;7.47;;;16.70;99.90;;;;;;5031678;28;20111;-77
2023/09/01 03:26:36;;;;;;;12.52;7.68;;;16.60;99.90;;;;;;5013848;28;20110;-77
2023/09/01 03:29:03;;;;;;;15.63;7.78;;;16.60;99.90;;;;;;5013640;28;20088;-77
2023/09/01 03:31:31;;;;;;;14.90;8.00;;;16.60;99.90;;;;;;5013966;28;20120;-77
2023/09/01 03:33:59;;;;;;;12.43;7.03;;;16.60;99.90;;;;;;5011738;28;20100;-77
2023/09/01 03:36:26;;;;;;;14.38;7.72;;;16.60;99.90;;;;;;5030225;28;20501;-77
2023/09/01 03:38:54;;;;;;;12.82;7.43;;;16.60;99.90;;;;;;5018960;28;20115;-76
2023/09/01 03:41:20;;;;;;;11.85;8.05;;;16.50;99.90;;;;;;4994077;28;20034;-76
2023/09/01 03:43:46;;;;;;;12.73;8.38;;;16.50;99.90;;;;;;4977705;28;1251047;-77
2023/09/01 03:46:12;;;;;;;11.68;7.32;;;16.60;99.90;;;;;;5014307;28;20053;-77
2023/09/01 03:48:38;;;;;;;14.25;8.60;;;16.60;99.90;;;;;;5032335;28;20036;-77
2023/09/01 03:51:14;;;;;;;15.90;8.10;;;16.60;99.90;;;;;;5019239;28;20056;-77
2023/09/01 03:53:40;;;;;;;14.93;8.55;;;16.50;99.90;;;;;;5014572;28;20025;-77
2023/09/01 03:56:14;;;;;;;18.80;8.05;;;16.60;99.90;;;;;;5014681;28;20026;-76
2023/09/01 03:58:40;;;;;;;12.73;7.50;;;16.60;99.90;;;;;;5031833;28;20048;-78
2023/09/01 04:01:11;;;;;;;12.55;7.78;;;16.70;99.90;;;;;;5031926;28;20041;-77
2023/09/01 04:03:40;;;;;;;10.15;7.15;;;16.70;99.90;;;;;;5013721;28;20025;-78
2023/09/01 04:06:07;;;;;;;10.90;7.03;;;16.70;99.90;;;;;;5032909;28;20041;-77
2023/09/01 04:08:34;;;;;;;11.65;7.35;;;16.70;99.90;;;;;;5031848;28;20033;-77
2023/09/01 04:11:03;;;;;;;11.93;6.55;;;16.80;99.90;;;;;;5014203;28;20041;-77
2023/09/01 04:13:31;;;;;;;11.43;7.20;;;16.90;99.90;;;;;;5031567;28;20551;-77
2023/09/01 04:15:56;;;;;;;12.98;7.28;;;17.00;99.90;;;;;;5013511;28;20076;-77
2023/09/01 04:18:24;;;;;;;9.90;6.53;;;17.20;99.90;;;;;;5014339;28;20033;-76
2023/09/01 04:20:51;;;;;;;10.10;5.88;;;17.40;99.90;;;;;;5031832;28;20032;-77
2023/09/01 04:23:17;;;;;;;11.00;6.30;;;17.70;99.90;;;;;;5032065;28;20045;-78
2023/09/01 04:25:47;;;;;;;9.57;5.65;;;18.00;99.90;;;;;;5014154;28;20420;-78
2023/09/01 04:28:16;;;;;;;9.85;5.88;;;18.20;99.90;;;;;;5032220;28;20120;-78
2023/09/01 04:30:46;;;;;;;11.90;6.47;;;18.40;99.90;;;;;;5013580;28;20053;-77
2023/09/01 04:33:13;;;;;;;9.38;5.70;;;18.20;99.90;;;;;;5013907;28;20033;-77
2023/09/01 04:35:39;;;;;;;9.35;5.30;;;18.50;99.90;;;;;;5014139;28;20025;-77
2023/09/01 04:38:07;;;;;;;9.95;5.57;;;18.70;99.90;;;;;;5013579;28;20024;-76
2023/09/01 04:40:32;;;;;;;8.52;5.50;;;18.80;99.90;;;;;;5030805;28;20033;-77
2023/09/01 04:42:58;;;;;;;10.38;6.30;;;19.40;99.90;;;;;;5020549;28;20370;-77
2023/09/01 04:45:24;;;;;;;11.63;5.65;;;19.90;99.90;;;;;;5012671;28;20050;-77
2023/09/01 04:47:51;;;;;;;10.32;4.60;;;20.30;99.90;;;;;;5012819;28;20029;-77
2023/09/01 04:50:17;;;;;;;11.90;5.10;;;20.70;99.90;;;;;;5032831;28;20429;-77
2023/09/01 04:52:44;;;;;;;10.50;5.00;;;21.10;99.90;;;;;;5035697;28;20030;-77
2023/09/01 04:55:10;;;;;;;8.23;4.72;;;21.50;99.90;;;;;;5017728;28;20484;-77
2023/09/01 04:57:37;;;;;;;7.88;4.68;;;21.70;99.90;;;;;;5017420;28;20022;-77
2023/09/01 05:00:15;;;;;;;9.88;5.50;;;22.10;99.90;;;;;;5033597;28;20099;-77
2023/09/01 05:02:43;;;;;;;7.00;5.07;;;21.90;99.90;;;;;;5017746;28;20026;-78
2023/09/01 05:05:11;;;;;;;12.45;5.20;;;22.50;99.90;;;;;;5017219;28;20072;-77
2023/09/01 05:07:37;;;;;;;10.73;5.47;;;22.70;99.90;;;;;;5017500;28;20095;-77
2023/09/01 05:10:03;;;;;;;9.20;5.13;;;23.20;99.90;;;;;;5017182;28;20393;-77
2023/09/01 05:12:29;;;;;;;12.60;5.68;;;23.50;99.90;;;;;;5017203;28;20026;-77
2023/09/01 05:14:55;;;;;;;11.68;6.03;;;23.60;99.10;;;;;;5012461;28;20045;-77
2023/09/01 05:17:21;;;;;;;12.55;6.25;;;22.80;99.90;;;;;;5016034;28;20045;-77
2023/09/01 05:19:47;;;;;;;12.98;5.68;;;22.50;99.90;;;;;;5014715;28;20116;-77
2023/09/01 05:22:13;;;;;;;11.63;5.82;;;22.10;99.90;;;;;;5031627;28;20061;-77
2023/09/01 05:24:40;;;;;;;12.65;6.63;;;21.70;99.90;;;;;;5032776;28;20071;-77
2023/09/01 05:27:06;;;;;;;8.45;5.93;;;21.70;99.90;;;;;;5033177;28;20121;-77
2023/09/01 05:29:32;;;;;;;13.55;6.85;;;21.40;99.90;;;;;;5033330;28;20022;-77
2023/09/01 05:31:58;;;;;;;14.48;6.50;;;21.20;99.90;;;;;;5032748;28;20056;-77
2023/09/01 05:34:25;;;;;;;9.88;5.68;;;21.20;99.90;;;;;;5016011;28;20120;-77
2023/09/01 05:36:51;;;;;;;9.65;6.20;;;21.20;99.90;;;;;;5015699;28;20041;-77
2023/09/01 05:39:17;;;;;;;8.30;5.63;;;21.10;99.90;;;;;;5016403;28;20034;-77
2023/09/01 05:41:43;;;;;;;12.77;5.88;;;21.10;99.90;;;;;;5017062;28;20390;-77
2023/09/01 05:44:09;;;;;;;11.18;5.85;;;21.10;99.90;;;;;;5016564;28;20077;-77
2023/09/01 05:46:35;;;;;;;11.10;5.30;;;21.00;99.90;;;;;;5034634;28;20124;-77
2023/09/01 05:49:01;;;;;;;8.93;5.20;;;21.10;99.90;;;;;;5016775;28;20169;-77
2023/09/01 05:51:27;;;;;;;7.70;5.70;;;21.30;99.90;;;;;;5016876;28;20061;-77
2023/09/01 05:53:53;;;;;;;11.40;5.15;;;21.40;99.90;;;;;;5034600;28;20374;-77
2023/09/01 05:56:18;;;;;;;8.57;5.82;;;21.40;99.90;;;;;;5034761;28;20136;-77
2023/09/01 05:58:44;;;;;;;12.38;6.15;;;21.40;99.90;;;;;;5034358;28;20127;-76
2023/09/01 06:01:10;;;;;;;11.27;6.07;;;21.50;99.90;;;;;;5034166;28;20036;-77
2023/09/01 06:03:36;;;;;;;9.25;5.68;;;21.60;99.90;;;;;;5034292;28;20026;-77
2023/09/01 06:06:01;;;;;;;12.45;5.85;;;21.40;99.90;;;;;;5034059;28;20063;-77
2023/09/01 06:08:27;;;;;;;9.45;5.63;;;21.50;99.90;;;;;;5034112;28;20033;-76
2023/09/01 06:11:03;;;;;;;9.32;5.63;;;21.60;99.90;;;;;;5034569;28;20037;-76
2023/09/01 06:13:29;;;;;;;10.38;5.15;;;21.70;99.90;;;;;;5034408;28;20110;-76
2023/09/01 06:15:54;;;;;;;11.57;6.40;;;21.80;99.90;;;;;;5034006;28;20072;-76
2023/09/01 06:18:20;;;;;;;7.53;5.22;;;21.90;99.90;;;;;;5034013;28;20095;-77
2023/09/01 06:20:46;;;;;;;8.63;5.13;;;21.90;99.90;;;;;;5034128;28;20028;-76
2023/09/01 06:23:12;;;;;;;11.02;5.72;;;22.00;99.90;;;;;;5016363;28;20469;-77
2023/09/01 06:25:37;;;;;;;9.02;5.32;;;21.90;99.90;;;;;;5033563;28;20033;-76
2023/09/01 06:28:03;;;;;;;7.78;5.03;;;22.20;99.90;;;;;;5034060;28;20022;-76
2023/09/01 06:30:29;;;;;;;5.63;4.20;;;22.30;99.90;;;;;;5033771;28;20056;-76
2023/09/01 06:32:55;;;;;;;8.27;4.65;;;22.50;99.90;;;;;;5033789;28;20037;-76
2023/09/01 06:35:21;;;;;;;6.95;4.53;;;22.40;99.90;;;;;;5015406;28;20041;-76
2023/09/01 06:37:46;;;;;;;15.43;4.18;;;22.60;99.90;;;;;;5033777;28;20056;-76
2023/09/01 06:40:12;;;;;;;5.93;4.20;;;22.40;99.90;;;;;;5033713;28;20030;-77
2023/09/01 06:42:38;;;;;;;7.75;3.92;;;22.50;99.90;;;;;;5033596;28;20021;-77
2023/09/01 06:45:04;;;;;;;6.38;4.10;;;22.60;99.90;;;;;;5033297;28;20136;-77
2023/09/01 06:47:30;;;;;;;7.57;4.35;;;22.60;99.90;;;;;;5033453;28;20029;-77
2023/09/01 06:49:56;;;;;;;9.05;4.53;;;22.40;99.90;;;;;;5033567;28;20036;-77
2023/09/01 06:52:22;;;;;;;7.57;4.70;;;22.70;99.90;;;;;;5033452;28;20032;-77
2023/09/01 06:54:49;;;;;;;7.55;4.78;;;22.70;99.90;;;;;;5043509;28;20132;-77
2023/09/01 06:57:15;;;;;;;8.73;3.85;;;22.70;99.90;;;;;;5036248;28;20119;-76
2023/09/01 06:59:41;;;;;;;9.80;4.93;;;23.00;99.90;;;;;;5033227;28;20025;-76
2023/09/01 07:02:06;;;;;;;8.18;4.72;;;23.00;99.90;;;;;;5033731;28;20060;-76
2023/09/01 07:04:32;;;;;;;6.53;4.78;;;23.10;99.90;;;;;;5033423;28;20094;-76
2023/09/01 07:06:58;;;;;;;7.72;3.83;;;23.00;99.90;;;;;;5033234;28;20035;-76
2023/09/01 07:09:24;;;;;;;6.82;4.22;;;23.10;99.90;;;;;;5033275;28;20021;-77
2023/09/01 07:11:50;;;;;;;4.97;4.07;;;23.20;99.90;;;;;;5033070;28;20358;-76
2023/09/01 07:14:15;;;;;;;7.78;4.00;;;23.30;99.90;;;;;;5032385;28;20112;-76
2023/09/01 07:16:41;;;;;;;7.88;4.13;;;23.50;99.90;;;;;;5032880;28;20524;-77
2023/09/01 07:19:07;;;;;;;6.68;4.00;;;23.60;99.90;;;;;;5032697;28;20499;-77
2023/09/01 07:21:33;;;;;;;6.20;4.03;;;23.70;99.90;;;;;;5032553;28;20108;-77
2023/09/01 07:23:59;;;;;;;6.85;4.05;;;23.80;99.90;;;;;;5032716;28;20535;-77
2023/09/01 07:26:24;;;;;;;6.63;4.05;;;23.80;99.90;;;;;;5032760;28;20544;-77
2023/09/01 07:28:50;;;;;;;5.63;3.35;;;23.90;99.90;;;;;;5032934;28;20029;-77
2023/09/01 07:31:16;;;;;;;8.20;3.72;;;24.10;99.90;;;;;;5032731;28;20033;-76
2023/09/01 07:33:42;;;;;;;3.03;2.47;;;24.20;99.90;;;;;;5032835;28;20024;-76
2023/09/01 07:36:12;;;;;;;3.67;2.40;;;24.20;99.90;;;;;;5032137;28;20041;-76
2023/09/01 07:38:38;;;;;;;3.55;2.58;;;24.30;99.90;;;;;;5032523;28;20041;-77
2023/09/01 07:41:04;;;;;;;4.93;3.25;;;24.50;99.90;;;;;;5032597;28;20029;-77
2023/09/01 07:43:31;;;;;;;4.50;2.90;;;24.60;98.60;;;;;;5032238;28;20033;-77
2023/09/01 07:45:57;;;;;;;5.85;2.80;;;24.70;98.20;;;;;;5032223;28;20037;-77
2023/09/01 07:48:23;;;;;;;4.13;2.80;;;24.80;98.70;;;;;;5032757;28;20097;-77
2023/09/01 07:50:49;;;;;;;5.28;3.15;;;24.90;95.90;;;;;;5032501;28;20104;-77
2023/09/01 07:53:15;;;;;;;4.03;2.83;;;24.70;96.20;;;;;;5032225;28;20028;-77
2023/09/01 07:55:41;;;;;;;5.72;2.65;;;23.90;95.80;;;;;;5032481;28;20026;-77
2023/09/01 07:58:07;;;;;;;4.18;2.72;;;24.50;95.00;;;;;;5014406;28;20073;-77
2023/09/01 08:00:33;;;;;;;8.25;3.30;;;24.60;96.90;;;;;;5032293;28;20032;-77
2023/09/01 08:02:59;;;;;;;5.38;2.65;;;24.60;98.20;;;;;;5032035;28;20025;-77
2023/09/01 08:05:25;;;;;;;6.18;3.13;;;24.80;95.50;;;;;;5032049;28;20092;-76
2023/09/01 08:07:53;;;;;;;4.65;2.67;;;24.90;94.70;;;;;;5031763;28;20100;-77
2023/09/01 08:10:19;;;;;;;3.92;3.10;;;24.90;94.30;;;;;;5032302;28;20036;-77
2023/09/01 08:12:45;;;;;;;5.75;2.95;;;25.00;95.50;;;;;;5031910;28;20029;-76
2023/09/01 08:15:11;;;;;;;4.10;2.50;;;25.30;95.60;;;;;;5032025;28;20037;-77
2023/09/01 08:17:37;;;;;;;4.53;2.67;;;25.30;95.10;;;;;;5032060;28;20504;-77
2023/09/01 08:20:04;;;;;;;4.32;2.40;;;25.40;94.50;;;;;;5031730;28;20061;-76
2023/09/01 08:22:31;;;;;;;3.72;2.92;;;25.40;93.90;;;;;;5031438;28;20112;-76
2023/09/01 08:24:57;;;;;;;3.63;2.60;;;25.30;91.90;;;;;;5031703;28;20026;-76
2023/09/01 08:27:25;;;;;;;7.63;3.08;;;25.30;92.10;;;;;;5031635;28;20057;-76
2023/09/01 08:29:51;;;;;;;5.82;2.85;;;25.20;92.40;;;;;;5031760;28;20100;-77
2023/09/01 08:32:16;;;;;;;2.63;2.30;;;25.20;93.10;;;;;;5031831;28;20053;-76
2023/09/01 08:34:42;;;;;;;3.70;2.78;;;25.30;93.90;;;;;;5031620;28;20030;-77
2023/09/01 08:37:10;;;;;;;5.30;2.70;;;25.50;93.90;;;;;;5031269;28;20052;-77
2023/09/01 08:39:36;;;;;;;4.85;2.72;;;25.70;93.00;;;;;;5031708;28;20036;-77
2023/09/01 08:42:02;;;;;;;4.32;2.60;;;25.80;92.90;;;;;;5031546;28;20151;-77
2023/09/01 08:44:31;;;;;;;3.35;2.60;;;25.40;92.90;;;;;;5031638;28;20160;-77
2023/09/01 08:46:57;;;;;;;8.05;2.95;;;25.10;93.00;;;;;;5031241;28;20077;-77
2023/09/01 08:49:27;;;;;;;2.65;2.28;;;24.90;92.60;;;;;;5031755;28;20033;-76
2023/09/01 08:51:57;;;;;;;5.82;2.92;;;25.00;93.60;;;;;;5031105;28;20079;-77
2023/09/01 08:54:23;;;;;;;5.00;3.22;;;25.10;94.10;;;;;;5031848;28;20112;-76
2023/09/01 08:56:50;;;;;;;4.90;2.80;;;25.20;94.00;;;;;;5031482;28;20021;-77
2023/09/01 08:59:16;;;;;;;3.92;3.00;;;25.30;93.00;;;;;;5031569;28;20160;-77
2023/09/01 09:01:42;;;;;;;4.07;2.83;;;25.30;93.50;;;;;;5031410;28;20037;-77
2023/09/01 09:04:07;;;;;;;4.03;2.78;;;25.60;93.60;;;;;;5031377;28;20033;-77
2023/09/01 09:06:38;;;;;;;2.88;2.10;;;25.80;93.10;;;;;;5031321;28;20033;-77
2023/09/01 09:09:15;;;;;;;3.28;2.28;;;26.10;93.40;;;;;;5031438;28;20051;-76
2023/09/01 09:12:15;;;;;;;8.57;2.72;;;25.80;92.30;;;;;;5031366;28;20032;-77
2023/09/01 09:14:51;;;;;;;6.53;3.10;;;25.60;91.90;;;;;;4932079;29;20039;-77
2023/09/01 09:17:17;;;;;;;5.18;2.30;;;25.60;90.80;;;;;;4931927;29;20047;-77
2023/09/01 09:19:59;;;;;;;4.88;2.70;;;25.70;90.50;;;;;;4932005;29;20016;-77
2023/09/01 09:22:25;;;;;;;5.85;2.70;;;25.50;90.90;;;;;;4932070;29;20503;-77
2023/09/01 09:24:51;;;;;;;3.30;2.20;;;25.40;90.90;;;;;;4931840;29;20043;-77
2023/09/01 09:27:18;;;;;;;3.65;2.28;;;25.20;92.20;;;;;;4931585;29;20058;-76
2023/09/01 09:29:45;;;;;;;3.72;2.33;;;25.10;90.50;;;;;;4931777;29;20028;-76
2023/09/01 09:32:21;;;;;;;3.97;2.40;;;24.70;91.00;;;;;;4931441;29;20472;-77
2023/09/01 09:35:13;;;;;;;5.53;2.63;;;25.00;91.50;;;;;;4932341;29;20028;-76
2023/09/01 09:37:42;;;;;;;4.35;2.85;;;25.30;93.00;;;;;;4933129;29;20058;-76
2023/09/01 09:40:12;;;;;;;4.95;2.63;;;25.40;91.20;;;;;;4935202;29;20028;-76
2023/09/01 09:42:39;;;;;;;5.13;2.17;;;25.50;91.20;;;;;;4933191;29;20038;-75
2023/09/01 09:45:20;;;;;;;6.25;3.17;;;25.80;90.80;;;;;;4920814;29;20139;-76
2023/09/01 09:47:47;;;;;;;8.02;2.85;;;26.10;91.60;;;;;;4916422;29;20067;-76
2023/09/01 09:50:16;;;;;;;6.32;2.35;;;26.00;91.20;;;;;;4961423;28;20042;-76
2023/09/01 09:52:47;;;;;;;3.50;2.47;;;26.00;91.60;;;;;;5014332;28;20022;-76
2023/09/01 09:55:18;;;;;;;4.38;2.42;;;25.80;91.10;;;;;;5014842;28;20079;-76
2023/09/01 09:57:48;;;;;;;3.83;2.40;;;26.00;90.40;;;;;;5014554;28;20038;-77
2023/09/01 10:00:14;;;;;;;3.25;2.28;;;26.20;90.70;;;;;;5014674;28;20026;-77
2023/09/01 10:02:47;;;;;;;3.85;2.00;;;26.40;90.40;;;;;;5014270;28;20088;-77
2023/09/01 10:05:15;;;;;;;3.13;2.20;;;26.70;90.40;;;;;;5014460;28;20021;-77
2023/09/01 10:07:42;;;;;;;6.60;2.15;;;26.50;89.60;;;;;;5014278;28;20065;-77
2023/09/01 10:10:09;;;;;;;4.63;2.10;;;26.60;89.50;;;;;;5013933;28;20033;-77
2023/09/01 10:12:35;;;;;;;5.43;2.70;;;26.70;86.20;;;;;;5014272;28;20029;-77
2023/09/01 10:15:04;;;;;;;7.25;2.75;;;26.90;88.20;;;;;;5014115;28;20026;-77
2023/09/01 10:17:34;;;;;;;4.50;2.58;;;27.00;88.70;;;;;;5014166;28;20033;-76
2023/09/01 10:20:04;;;;;;;5.60;2.20;;;27.00;86.40;;;;;;5014122;28;20080;-76
2023/09/01 10:22:30;;;;;;;3.05;2.15;;;27.10;86.60;;;;;;5014015;28;20045;-77
2023/09/01 10:25:11;;;;;;;3.67;1.67;;;27.10;85.80;;;;;;5014193;28;20109;-77
2023/09/01 10:27:38;;;;;;;3.33;2.08;;;26.60;84.30;;;;;;5013946;28;20386;-77
2023/09/01 10:30:24;;;;;;;3.05;1.95;;;26.40;86.10;;;;;;5014370;28;20029;-77
2023/09/01 10:32:50;;;;;;;3.45;1.70;;;26.10;83.40;;;;;;5013734;28;20045;-77
2023/09/01 10:35:36;;;;;;;1.90;1.70;;;26.20;84.70;;;;;;5014054;28;20041;-76
2023/09/01 10:38:13;;;;;;;5.25;1.92;;;26.00;84.90;;;;;;5014535;28;20028;-77
2023/09/01 10:40:55;;;;;;;3.70;2.00;;;26.10;86.20;;;;;;5013680;28;20378;-77
2023/09/01 10:43:41;;;;;;;4.88;1.80;;;26.10;84.80;;;;;;5014267;28;20030;-77
2023/09/01 10:46:16;;;;;;;1.67;1.50;;;25.70;83.90;;;;;;5022719;28;20046;-77
2023/09/01 10:48:53;;;;;;;2.42;1.60;;;25.40;84.80;;;;;;5032334;28;20017;-77
2023/09/01 10:51:20;;;;;;;4.38;2.15;;;25.60;86.80;;;;;;5033828;28;20033;-77
2023/09/01 10:53:46;;;;;;;3.97;1.90;;;25.80;85.40;;;;;;5034338;28;20096;-77
2023/09/01 10:56:14;;;;;;;6.88;1.92;;;26.00;87.30;;;;;;5045777;28;20029;-76
2023/09/01 10:58:52;;;;;;;2.00;1.17;;;26.20;87.80;;;;;;5033309;28;20083;-77
2023/09/01 11:01:28;;;;;;;1.40;1.30;;;26.00;83.80;;;;;;5033617;28;20025;-77
2023/09/01 11:03:54;;;;;;;1.40;1.23;;;26.10;82.60;;;;;;5032791;28;20474;-77
2023/09/01 11:06:22;;;;;;;4.15;1.52;;;26.00;83.00;;;;;;5033713;28;20037;-78
2023/09/01 11:09:01;;;;;;;5.30;1.58;;;25.70;82.50;;;;;;5032835;28;20034;-78
2023/09/01 11:11:28;;;;;;;3.13;1.38;;;25.80;82.40;;;;;;5033382;28;20083;-77
2023/09/01 11:13:59;;;;;;;2.05;1.08;;;26.00;82.10;;;;;;5033041;28;20017;-78
2023/09/01 11:16:24;;;;;;;2.40;1.73;;;25.90;82.10;;;;;;5033007;28;20029;-77
2023/09/01 11:19:01;;;;;;;5.97;1.70;;;26.10;83.40;;;;;;5033109;28;20021;-77
2023/09/01 11:21:27;;;;;;;2.40;1.60;;;26.10;81.50;;;;;;5032957;28;20060;-77
2023/09/01 11:23:58;;;;;;;2.22;1.52;;;26.00;82.20;;;;;;5033283;28;20384;-77
2023/09/01 11:26:24;;;;;;;2.10;1.75;;;26.20;82.30;;;;;;5002344;28;20041;-77
2023/09/01 11:28:50;;;;;;;3.35;1.55;;;26.20;81.30;;;;;;5032525;28;20037;-77
2023/09/01 11:31:15;;;;;;;5.32;1.45;;;26.00;81.10;;;;;;5032934;28;20068;-77
2023/09/01 11:33:50;;;;;;;3.55;1.35;;;25.90;81.40;;;;;;5032476;28;20104;-77
2023/09/01 11:36:17;;;;;;;3.28;1.50;;;25.90;82.10;;;;;;5032934;28;20061;-77
2023/09/01 11:38:44;;;;;;;3.63;1.33;;;26.10;83.30;;;;;;5014482;28;20022;-77
2023/09/01 11:41:19;;;;;;;3.47;1.45;;;26.30;82.10;;;;;;5032684;28;20482;-78
2023/09/01 11:43:46;;;;;;;1.70;1.08;;;26.20;79.90;;;;;;5032082;28;20517;-77
2023/09/01 11:46:13;;;;;;;1.33;1.00;;;26.00;78.70;;;;;;5014443;28;20046;-77
2023/09/01 11:48:39;;;;;;;3.92;1.30;;;26.00;80.30;;;;;;5032631;28;20101;-77
2023/09/01 11:51:08;;;;;;;2.58;1.20;;;25.90;79.80;;;;;;5032432;28;20022;-77
2023/09/01 11:53:34;;;;;;;1.55;1.00;;;25.80;79.10;;;;;;5032300;28;20711;-77
2023/09/01 11:56:15;;;;;;;2.22;1.27;;;25.90;79.00;;;;;;5032155;28;20049;-77
2023/09/01 11:58:41;;;;;;;3.67;1.13;;;25.90;80.60;;;;;;5031934;28;20096;-77
2023/09/01 12:01:15;;;;;;;2.22;1.10;;;26.00;81.10;;;;;;5032512;28;20530;-77
2023/09/01 12:03:51;;;;;;;4.03;1.35;;;25.80;78.50;;;;;;5019632;28;20022;-77
2023/09/01 12:06:18;;;;;;;2.65;0.88;;;25.90;79.40;;;;;;5032144;28;20071;-77
2023/09/01 12:08:46;;;;;;;3.60;1.30;;;25.80;76.70;;;;;;5031822;28;20296;-77
2023/09/01 12:11:13;;;;;;;1.17;1.08;;;25.80;78.30;;;;;;5031863;28;20439;-77
2023/09/01 12:13:39;;;;;;;1.05;0.95;;;25.80;74.70;;;;;;5032028;28;20156;-78
2023/09/01 12:16:05;;;;;;;1.35;1.20;;;25.80;75.20;;;;;;5031759;28;20061;-77
2023/09/01 12:18:34;;;;;;;3.15;1.42;;;26.00;76.50;;;;;;5032096;28;20022;-78
2023/09/01 12:21:01;;;;;;;1.35;1.17;;;26.10;77.00;;;;;;5031621;28;20026;-77
2023/09/01 12:23:29;;;;;;;2.97;1.35;;;25.90;76.20;;;;;;5032201;28;20140;-77
2023/09/01 12:25:55;;;;;;;5.18;1.58;;;26.00;78.00;;;;;;5031817;28;20025;-77
2023/09/01 12:28:24;;;;;;;3.92;1.73;;;26.10;78.60;;;;;;5031999;28;20025;-78
2023/09/01 12:30:49;;;;;;;2.08;1.27;;;26.10;80.60;;;;;;5031612;28;20029;-77
2023/09/01 12:33:15;;;;;;;5.30;1.30;;;25.90;76.90;;;;;;5031913;28;20048;-77
2023/09/01 12:35:41;;;;;;;2.30;1.23;;;26.00;78.10;;;;;;5031506;28;20033;-77
2023/09/01 12:38:07;;;;;;;4.32;1.83;;;25.80;77.90;;;;;;5031737;28;20033;-76
2023/09/01 12:40:34;;;;;;;2.20;1.50;;;25.80;76.90;;;;;;5031750;28;20439;-77
2023/09/01 12:43:01;;;;;;;2.10;1.42;;;26.00;78.50;;;;;;5031692;28;20029;-77
2023/09/01 12:45:26;;;;;;;5.07;1.45;;;25.90;78.30;;;;;;5031463;28;20516;-77
2023/09/01 12:47:52;;;;;;;3.08;1.30;;;26.00;78.00;;;;;;5031600;28;20033;-77